sensor_id;sensor_type;location;lat;lon;timestamp;P1;durP1;ratioP1;P2;durP2;ratioP2
12814;SDS011;6472;52.328;13.070;2024-02-26T00:00:51;16.73;;;11.23;;
12814;SDS011;6472;52.328;13.070;2024-02-26T00:03:20;13.27;;;8.67;;
12814;SDS011;6472;52.328;13.070;2024-02-26T00:05:48;13.40;;;8.37;;
12814;SDS011;6472;52.328;13.070;2024-02-26T00:08:19;12.20;;;8.20;;
12814;SDS011;6472;52.328;13.070;2024-02-26T00:10:48;13.00;;;7.63;;
12814;SDS011;6472;52.328;13.070;2024-02-26T00:13:16;12.67;;;8.23;;
12814;SDS011;6472;52.328;13.070;2024-02-26T00:15:44;11.13;;;7.43;;
12814;SDS011;6472;52.328;13.070;2024-02-26T00:18:12;9.43;;;6.70;;
12814;SDS011;6472;52.328;13.070;2024-02-26T00:20:42;10.47;;;6.07;;
12814;SDS011;6472;52.328;13.070;2024-02-26T00:23:10;10.87;;;6.67;;
12814;SDS011;6472;52.328;13.070;2024-02-26T00:25:39;8.97;;;5.80;;
12814;SDS011;6472;52.328;13.070;2024-02-26T00:28:09;7.40;;;5.40;;
12814;SDS011;6472;52.328;13.070;2024-02-26T00:30:39;7.07;;;4.73;;
12814;SDS011;6472;52.328;13.070;2024-02-26T00:35:56;3.43;;;3.13;;
12814;SDS011;6472;52.328;13.070;2024-02-26T00:38:25;4.80;;;3.20;;
12814;SDS011;6472;52.328;13.070;2024-02-26T00:40:54;2.93;;;2.53;;
12814;SDS011;6472;52.328;13.070;2024-02-26T00:43:23;5.57;;;2.80;;
12814;SDS011;6472;52.328;13.070;2024-02-26T00:45:51;2.73;;;2.50;;
12814;SDS011;6472;52.328;13.070;2024-02-26T00:48:20;3.77;;;2.67;;
12814;SDS011;6472;52.328;13.070;2024-02-26T00:50:48;6.23;;;2.90;;
12814;SDS011;6472;52.328;13.070;2024-02-26T00:53:18;5.13;;;2.83;;
12814;SDS011;6472;52.328;13.070;2024-02-26T00:55:46;3.03;;;2.70;;
12814;SDS011;6472;52.328;13.070;2024-02-26T00:58:15;2.63;;;2.37;;
12814;SDS011;6472;52.328;13.070;2024-02-26T01:00:43;2.93;;;2.40;;
12814;SDS011;6472;52.328;13.070;2024-02-26T01:03:11;3.70;;;2.50;;
12814;SDS011;6472;52.328;13.070;2024-02-26T01:05:39;2.83;;;2.27;;
12814;SDS011;6472;52.328;13.070;2024-02-26T01:08:08;3.40;;;2.63;;
12814;SDS011;6472;52.328;13.070;2024-02-26T01:10:38;3.27;;;2.90;;
12814;SDS011;6472;52.328;13.070;2024-02-26T01:13:06;2.60;;;2.40;;
12814;SDS011;6472;52.328;13.070;2024-02-26T01:15:35;3.23;;;2.37;;
12814;SDS011;6472;52.328;13.070;2024-02-26T01:18:03;3.50;;;2.87;;
12814;SDS011;6472;52.328;13.070;2024-02-26T01:20:35;3.37;;;3.03;;
12814;SDS011;6472;52.328;13.070;2024-02-26T01:23:03;3.23;;;2.93;;
12814;SDS011;6472;52.328;13.070;2024-02-26T01:25:32;3.00;;;2.50;;
12814;SDS011;6472;52.328;13.070;2024-02-26T01:28:01;3.00;;;2.47;;
12814;SDS011;6472;52.328;13.070;2024-02-26T01:30:32;3.10;;;2.33;;
12814;SDS011;6472;52.328;13.070;2024-02-26T01:33:00;3.63;;;3.10;;
12814;SDS011;6472;52.328;13.070;2024-02-26T01:35:29;4.17;;;2.93;;
12814;SDS011;6472;52.328;13.070;2024-02-26T01:37:57;3.00;;;2.70;;
12814;SDS011;6472;52.328;13.070;2024-02-26T01:40:26;6.00;;;2.73;;
12814;SDS011;6472;52.328;13.070;2024-02-26T01:42:54;3.27;;;2.67;;
12814;SDS011;6472;52.328;13.070;2024-02-26T01:45:24;3.80;;;3.03;;
12814;SDS011;6472;52.328;13.070;2024-02-26T01:47:53;3.87;;;2.70;;
12814;SDS011;6472;52.328;13.070;2024-02-26T01:50:23;3.50;;;2.50;;
12814;SDS011;6472;52.328;13.070;2024-02-26T01:52:51;4.13;;;2.80;;
12814;SDS011;6472;52.328;13.070;2024-02-26T01:55:22;2.80;;;2.43;;
12814;SDS011;6472;52.328;13.070;2024-02-26T01:57:51;2.57;;;2.37;;
12814;SDS011;6472;52.328;13.070;2024-02-26T02:00:21;5.33;;;3.00;;
12814;SDS011;6472;52.328;13.070;2024-02-26T02:02:51;4.20;;;3.17;;
12814;SDS011;6472;52.328;13.070;2024-02-26T02:05:21;3.80;;;2.77;;
12814;SDS011;6472;52.328;13.070;2024-02-26T02:07:50;4.53;;;3.63;;
12814;SDS011;6472;52.328;13.070;2024-02-26T02:10:19;4.63;;;3.23;;
12814;SDS011;6472;52.328;13.070;2024-02-26T02:12:52;4.03;;;3.20;;
12814;SDS011;6472;52.328;13.070;2024-02-26T02:15:20;3.53;;;2.77;;
12814;SDS011;6472;52.328;13.070;2024-02-26T02:17:49;4.53;;;3.80;;
12814;SDS011;6472;52.328;13.070;2024-02-26T02:20:18;4.90;;;3.90;;
12814;SDS011;6472;52.328;13.070;2024-02-26T02:22:48;4.07;;;3.17;;
12814;SDS011;6472;52.328;13.070;2024-02-26T02:25:16;3.77;;;3.13;;
12814;SDS011;6472;52.328;13.070;2024-02-26T02:27:44;5.10;;;3.77;;
12814;SDS011;6472;52.328;13.070;2024-02-26T02:30:13;4.30;;;3.47;;
12814;SDS011;6472;52.328;13.070;2024-02-26T02:32:41;6.17;;;3.70;;
12814;SDS011;6472;52.328;13.070;2024-02-26T02:35:11;4.27;;;3.37;;
12814;SDS011;6472;52.328;13.070;2024-02-26T02:37:39;4.83;;;3.60;;
12814;SDS011;6472;52.328;13.070;2024-02-26T02:40:09;7.27;;;3.87;;
12814;SDS011;6472;52.328;13.070;2024-02-26T02:42:37;7.33;;;4.03;;
12814;SDS011;6472;52.328;13.070;2024-02-26T02:45:05;4.43;;;4.00;;
12814;SDS011;6472;52.328;13.070;2024-02-26T02:47:35;5.90;;;3.50;;
12814;SDS011;6472;52.328;13.070;2024-02-26T02:50:04;3.97;;;3.47;;
12814;SDS011;6472;52.328;13.070;2024-02-26T02:52:33;3.87;;;3.10;;
12814;SDS011;6472;52.328;13.070;2024-02-26T02:55:01;5.43;;;4.33;;
12814;SDS011;6472;52.328;13.070;2024-02-26T02:57:31;5.43;;;3.73;;
12814;SDS011;6472;52.328;13.070;2024-02-26T03:00:00;6.40;;;3.87;;
12814;SDS011;6472;52.328;13.070;2024-02-26T03:02:30;5.90;;;4.13;;
12814;SDS011;6472;52.328;13.070;2024-02-26T03:04:58;5.90;;;4.13;;
12814;SDS011;6472;52.328;13.070;2024-02-26T03:07:26;6.67;;;4.60;;
12814;SDS011;6472;52.328;13.070;2024-02-26T03:09:55;5.70;;;4.10;;
12814;SDS011;6472;52.328;13.070;2024-02-26T03:12:23;9.37;;;5.10;;
12814;SDS011;6472;52.328;13.070;2024-02-26T03:14:53;6.50;;;4.73;;
12814;SDS011;6472;52.328;13.070;2024-02-26T03:17:21;7.73;;;5.00;;
12814;SDS011;6472;52.328;13.070;2024-02-26T03:19:51;6.23;;;4.67;;
12814;SDS011;6472;52.328;13.070;2024-02-26T03:22:19;7.07;;;5.17;;
12814;SDS011;6472;52.328;13.070;2024-02-26T03:24:48;5.93;;;4.60;;
12814;SDS011;6472;52.328;13.070;2024-02-26T03:27:16;9.20;;;4.77;;
12814;SDS011;6472;52.328;13.070;2024-02-26T03:29:44;8.90;;;4.50;;
12814;SDS011;6472;52.328;13.070;2024-02-26T03:32:15;6.23;;;4.87;;
12814;SDS011;6472;52.328;13.070;2024-02-26T03:34:43;7.10;;;4.73;;
12814;SDS011;6472;52.328;13.070;2024-02-26T03:37:12;5.67;;;5.03;;
12814;SDS011;6472;52.328;13.070;2024-02-26T03:39:40;6.70;;;5.03;;
12814;SDS011;6472;52.328;13.070;2024-02-26T03:42:08;8.67;;;5.43;;
12814;SDS011;6472;52.328;13.070;2024-02-26T03:44:36;8.20;;;5.60;;
12814;SDS011;6472;52.328;13.070;2024-02-26T03:47:04;6.23;;;4.90;;
12814;SDS011;6472;52.328;13.070;2024-02-26T03:49:34;7.83;;;5.57;;
12814;SDS011;6472;52.328;13.070;2024-02-26T03:52:03;9.07;;;5.43;;
12814;SDS011;6472;52.328;13.070;2024-02-26T03:54:31;7.63;;;5.50;;
12814;SDS011;6472;52.328;13.070;2024-02-26T03:56:59;8.47;;;5.90;;
12814;SDS011;6472;52.328;13.070;2024-02-26T03:59:28;9.10;;;6.63;;
12814;SDS011;6472;52.328;13.070;2024-02-26T04:01:56;9.80;;;5.70;;
12814;SDS011;6472;52.328;13.070;2024-02-26T04:04:24;9.43;;;6.07;;
12814;SDS011;6472;52.328;13.070;2024-02-26T04:06:54;9.70;;;6.67;;
12814;SDS011;6472;52.328;13.070;2024-02-26T04:09:22;10.53;;;7.77;;
12814;SDS011;6472;52.328;13.070;2024-02-26T04:11:50;16.07;;;10.60;;
12814;SDS011;6472;52.328;13.070;2024-02-26T04:14:18;9.30;;;7.67;;
12814;SDS011;6472;52.328;13.070;2024-02-26T04:16:46;10.10;;;7.00;;
12814;SDS011;6472;52.328;13.070;2024-02-26T04:19:20;11.67;;;6.97;;
12814;SDS011;6472;52.328;13.070;2024-02-26T04:21:49;8.10;;;6.30;;
12814;SDS011;6472;52.328;13.070;2024-02-26T04:24:18;8.50;;;6.53;;
12814;SDS011;6472;52.328;13.070;2024-02-26T04:26:46;7.07;;;5.07;;
12814;SDS011;6472;52.328;13.070;2024-02-26T04:29:16;12.73;;;6.70;;
12814;SDS011;6472;52.328;13.070;2024-02-26T04:31:44;10.33;;;6.43;;
12814;SDS011;6472;52.328;13.070;2024-02-26T04:34:13;8.47;;;6.33;;
12814;SDS011;6472;52.328;13.070;2024-02-26T04:36:41;7.93;;;6.30;;
12814;SDS011;6472;52.328;13.070;2024-02-26T04:39:09;9.70;;;7.43;;
12814;SDS011;6472;52.328;13.070;2024-02-26T04:41:40;9.53;;;6.87;;
12814;SDS011;6472;52.328;13.070;2024-02-26T04:44:08;10.37;;;6.70;;
12814;SDS011;6472;52.328;13.070;2024-02-26T04:46:36;10.40;;;6.40;;
12814;SDS011;6472;52.328;13.070;2024-02-26T04:49:04;12.77;;;7.20;;
12814;SDS011;6472;52.328;13.070;2024-02-26T04:51:33;8.90;;;6.43;;
12814;SDS011;6472;52.328;13.070;2024-02-26T04:54:01;9.83;;;7.20;;
12814;SDS011;6472;52.328;13.070;2024-02-26T04:56:30;10.20;;;6.20;;
12814;SDS011;6472;52.328;13.070;2024-02-26T04:58:59;9.50;;;6.57;;
12814;SDS011;6472;52.328;13.070;2024-02-26T05:01:27;10.00;;;6.90;;
12814;SDS011;6472;52.328;13.070;2024-02-26T05:03:56;10.73;;;6.40;;
12814;SDS011;6472;52.328;13.070;2024-02-26T05:06:24;10.97;;;7.23;;
12814;SDS011;6472;52.328;13.070;2024-02-26T05:08:52;8.93;;;6.17;;
12814;SDS011;6472;52.328;13.070;2024-02-26T05:11:20;11.53;;;6.63;;
12814;SDS011;6472;52.328;13.070;2024-02-26T05:13:49;9.57;;;6.50;;
12814;SDS011;6472;52.328;13.070;2024-02-26T05:16:18;8.80;;;6.60;;
12814;SDS011;6472;52.328;13.070;2024-02-26T05:18:56;7.77;;;6.57;;
12814;SDS011;6472;52.328;13.070;2024-02-26T05:21:25;7.60;;;6.43;;
12814;SDS011;6472;52.328;13.070;2024-02-26T05:23:53;12.07;;;7.37;;
12814;SDS011;6472;52.328;13.070;2024-02-26T05:26:22;9.03;;;6.93;;
12814;SDS011;6472;52.328;13.070;2024-02-26T05:28:53;11.07;;;7.17;;
12814;SDS011;6472;52.328;13.070;2024-02-26T05:31:27;9.33;;;7.10;;
12814;SDS011;6472;52.328;13.070;2024-02-26T05:33:56;10.43;;;7.40;;
12814;SDS011;6472;52.328;13.070;2024-02-26T05:36:24;9.67;;;6.50;;
12814;SDS011;6472;52.328;13.070;2024-02-26T05:38:55;10.10;;;7.03;;
12814;SDS011;6472;52.328;13.070;2024-02-26T05:41:24;11.37;;;7.67;;
12814;SDS011;6472;52.328;13.070;2024-02-26T05:43:52;10.83;;;7.50;;
12814;SDS011;6472;52.328;13.070;2024-02-26T05:46:24;10.97;;;7.67;;
12814;SDS011;6472;52.328;13.070;2024-02-26T05:48:55;11.60;;;8.07;;
12814;SDS011;6472;52.328;13.070;2024-02-26T05:51:44;14.50;;;8.07;;
12814;SDS011;6472;52.328;13.070;2024-02-26T05:54:12;11.67;;;8.20;;
12814;SDS011;6472;52.328;13.070;2024-02-26T05:56:40;10.33;;;7.77;;
12814;SDS011;6472;52.328;13.070;2024-02-26T05:59:09;11.73;;;7.57;;
12814;SDS011;6472;52.328;13.070;2024-02-26T06:01:37;12.37;;;8.87;;
12814;SDS011;6472;52.328;13.070;2024-02-26T06:04:06;10.87;;;8.23;;
12814;SDS011;6472;52.328;13.070;2024-02-26T06:06:35;15.87;;;8.80;;
12814;SDS011;6472;52.328;13.070;2024-02-26T06:09:08;12.77;;;8.70;;
12814;SDS011;6472;52.328;13.070;2024-02-26T06:11:38;12.77;;;8.17;;
12814;SDS011;6472;52.328;13.070;2024-02-26T06:14:06;13.27;;;7.97;;
12814;SDS011;6472;52.328;13.070;2024-02-26T06:16:35;11.40;;;8.40;;
12814;SDS011;6472;52.328;13.070;2024-02-26T06:19:03;11.67;;;8.30;;
12814;SDS011;6472;52.328;13.070;2024-02-26T06:21:34;15.80;;;9.43;;
12814;SDS011;6472;52.328;13.070;2024-02-26T06:24:03;12.37;;;9.07;;
12814;SDS011;6472;52.328;13.070;2024-02-26T06:26:31;10.57;;;7.70;;
12814;SDS011;6472;52.328;13.070;2024-02-26T06:29:00;15.03;;;9.40;;
12814;SDS011;6472;52.328;13.070;2024-02-26T06:31:28;12.70;;;9.10;;
12814;SDS011;6472;52.328;13.070;2024-02-26T06:33:56;13.97;;;9.30;;
12814;SDS011;6472;52.328;13.070;2024-02-26T06:36:24;13.77;;;9.13;;
12814;SDS011;6472;52.328;13.070;2024-02-26T06:38:54;16.00;;;9.47;;
12814;SDS011;6472;52.328;13.070;2024-02-26T06:41:22;13.27;;;9.70;;
12814;SDS011;6472;52.328;13.070;2024-02-26T06:43:53;14.43;;;8.73;;
12814;SDS011;6472;52.328;13.070;2024-02-26T06:46:21;14.77;;;8.83;;
12814;SDS011;6472;52.328;13.070;2024-02-26T06:48:50;15.20;;;10.10;;
12814;SDS011;6472;52.328;13.070;2024-02-26T06:51:21;15.03;;;9.43;;
12814;SDS011;6472;52.328;13.070;2024-02-26T06:53:49;18.77;;;11.33;;
12814;SDS011;6472;52.328;13.070;2024-02-26T06:56:19;14.43;;;9.57;;
12814;SDS011;6472;52.328;13.070;2024-02-26T06:58:47;17.30;;;10.93;;
12814;SDS011;6472;52.328;13.070;2024-02-26T07:01:15;19.93;;;10.80;;
12814;SDS011;6472;52.328;13.070;2024-02-26T07:03:43;13.80;;;9.60;;
12814;SDS011;6472;52.328;13.070;2024-02-26T07:06:12;17.03;;;11.00;;
12814;SDS011;6472;52.328;13.070;2024-02-26T07:08:40;19.87;;;11.93;;
12814;SDS011;6472;52.328;13.070;2024-02-26T07:11:09;15.57;;;10.60;;
12814;SDS011;6472;52.328;13.070;2024-02-26T07:13:40;21.20;;;11.20;;
12814;SDS011;6472;52.328;13.070;2024-02-26T07:16:08;16.47;;;10.57;;
12814;SDS011;6472;52.328;13.070;2024-02-26T07:18:37;18.27;;;11.50;;
12814;SDS011;6472;52.328;13.070;2024-02-26T07:21:06;17.70;;;10.23;;
12814;SDS011;6472;52.328;13.070;2024-02-26T07:23:35;17.17;;;9.93;;
12814;SDS011;6472;52.328;13.070;2024-02-26T07:26:03;15.60;;;10.73;;
12814;SDS011;6472;52.328;13.070;2024-02-26T07:28:32;15.67;;;10.83;;
12814;SDS011;6472;52.328;13.070;2024-02-26T07:31:01;15.10;;;11.97;;
12814;SDS011;6472;52.328;13.070;2024-02-26T07:33:30;19.40;;;12.43;;
12814;SDS011;6472;52.328;13.070;2024-02-26T07:35:58;19.53;;;12.63;;
12814;SDS011;6472;52.328;13.070;2024-02-26T07:38:26;15.10;;;10.70;;
12814;SDS011;6472;52.328;13.070;2024-02-26T07:41:08;17.90;;;12.13;;
12814;SDS011;6472;52.328;13.070;2024-02-26T07:43:36;22.27;;;13.07;;
12814;SDS011;6472;52.328;13.070;2024-02-26T07:46:06;18.77;;;12.97;;
12814;SDS011;6472;52.328;13.070;2024-02-26T07:48:34;21.83;;;13.23;;
12814;SDS011;6472;52.328;13.070;2024-02-26T07:51:03;20.53;;;13.17;;
12814;SDS011;6472;52.328;13.070;2024-02-26T07:53:31;19.33;;;13.17;;
12814;SDS011;6472;52.328;13.070;2024-02-26T07:55:59;22.07;;;13.97;;
12814;SDS011;6472;52.328;13.070;2024-02-26T07:58:29;21.37;;;13.17;;
12814;SDS011;6472;52.328;13.070;2024-02-26T08:00:59;19.23;;;12.53;;
12814;SDS011;6472;52.328;13.070;2024-02-26T08:03:29;22.50;;;14.10;;
12814;SDS011;6472;52.328;13.070;2024-02-26T08:05:57;18.47;;;12.00;;
12814;SDS011;6472;52.328;13.070;2024-02-26T08:08:25;21.50;;;13.03;;
12814;SDS011;6472;52.328;13.070;2024-02-26T08:10:53;22.90;;;14.33;;
12814;SDS011;6472;52.328;13.070;2024-02-26T08:13:21;20.50;;;13.53;;
12814;SDS011;6472;52.328;13.070;2024-02-26T08:15:50;30.20;;;15.07;;
12814;SDS011;6472;52.328;13.070;2024-02-26T08:18:18;25.83;;;14.67;;
12814;SDS011;6472;52.328;13.070;2024-02-26T08:20:48;21.53;;;13.73;;
12814;SDS011;6472;52.328;13.070;2024-02-26T08:23:17;21.27;;;14.53;;
12814;SDS011;6472;52.328;13.070;2024-02-26T08:25:45;18.17;;;13.07;;
12814;SDS011;6472;52.328;13.070;2024-02-26T08:28:14;25.60;;;15.07;;
12814;SDS011;6472;52.328;13.070;2024-02-26T08:30:44;19.53;;;13.60;;
12814;SDS011;6472;52.328;13.070;2024-02-26T08:33:12;21.33;;;14.50;;
12814;SDS011;6472;52.328;13.070;2024-02-26T08:35:41;21.47;;;14.80;;
12814;SDS011;6472;52.328;13.070;2024-02-26T08:38:10;22.07;;;15.17;;
12814;SDS011;6472;52.328;13.070;2024-02-26T08:40:38;18.83;;;12.60;;
12814;SDS011;6472;52.328;13.070;2024-02-26T08:43:07;20.80;;;13.87;;
12814;SDS011;6472;52.328;13.070;2024-02-26T08:45:36;17.40;;;12.67;;
12814;SDS011;6472;52.328;13.070;2024-02-26T08:48:05;18.37;;;12.70;;
12814;SDS011;6472;52.328;13.070;2024-02-26T08:50:34;17.63;;;12.63;;
12814;SDS011;6472;52.328;13.070;2024-02-26T08:53:03;17.27;;;12.83;;
12814;SDS011;6472;52.328;13.070;2024-02-26T08:55:34;17.33;;;12.37;;
12814;SDS011;6472;52.328;13.070;2024-02-26T08:58:02;15.53;;;11.90;;
12814;SDS011;6472;52.328;13.070;2024-02-26T09:00:31;15.87;;;11.87;;
12814;SDS011;6472;52.328;13.070;2024-02-26T09:02:59;15.17;;;11.83;;
12814;SDS011;6472;52.328;13.070;2024-02-26T09:05:31;18.07;;;11.43;;
12814;SDS011;6472;52.328;13.070;2024-02-26T09:07:59;16.77;;;11.60;;
12814;SDS011;6472;52.328;13.070;2024-02-26T09:10:27;18.40;;;12.20;;
12814;SDS011;6472;52.328;13.070;2024-02-26T09:12:56;16.13;;;11.30;;
12814;SDS011;6472;52.328;13.070;2024-02-26T09:15:25;17.07;;;11.90;;
12814;SDS011;6472;52.328;13.070;2024-02-26T09:17:53;16.53;;;12.80;;
12814;SDS011;6472;52.328;13.070;2024-02-26T09:20:21;17.53;;;11.97;;
12814;SDS011;6472;52.328;13.070;2024-02-26T09:22:50;16.67;;;11.83;;
12814;SDS011;6472;52.328;13.070;2024-02-26T09:25:18;18.77;;;13.77;;
12814;SDS011;6472;52.328;13.070;2024-02-26T09:27:46;15.73;;;12.00;;
12814;SDS011;6472;52.328;13.070;2024-02-26T09:30:16;16.40;;;12.00;;
12814;SDS011;6472;52.328;13.070;2024-02-26T09:32:45;13.33;;;11.30;;
12814;SDS011;6472;52.328;13.070;2024-02-26T09:35:14;14.07;;;11.17;;
12814;SDS011;6472;52.328;13.070;2024-02-26T09:37:43;14.33;;;11.37;;
12814;SDS011;6472;52.328;13.070;2024-02-26T09:40:11;15.83;;;11.60;;
12814;SDS011;6472;52.328;13.070;2024-02-26T09:42:41;16.63;;;11.67;;
12814;SDS011;6472;52.328;13.070;2024-02-26T09:45:12;15.23;;;11.43;;
12814;SDS011;6472;52.328;13.070;2024-02-26T09:47:49;16.67;;;11.83;;
12814;SDS011;6472;52.328;13.070;2024-02-26T09:50:17;16.30;;;11.00;;
12814;SDS011;6472;52.328;13.070;2024-02-26T09:52:49;15.57;;;10.70;;
12814;SDS011;6472;52.328;13.070;2024-02-26T09:55:19;12.23;;;10.20;;
12814;SDS011;6472;52.328;13.070;2024-02-26T09:57:47;14.97;;;11.93;;
12814;SDS011;6472;52.328;13.070;2024-02-26T10:00:21;13.40;;;11.17;;
12814;SDS011;6472;52.328;13.070;2024-02-26T10:02:50;16.43;;;10.53;;
12814;SDS011;6472;52.328;13.070;2024-02-26T10:05:19;15.57;;;10.90;;
12814;SDS011;6472;52.328;13.070;2024-02-26T10:07:47;12.83;;;9.77;;
12814;SDS011;6472;52.328;13.070;2024-02-26T10:10:16;13.00;;;10.47;;
12814;SDS011;6472;52.328;13.070;2024-02-26T10:12:45;16.87;;;10.77;;
12814;SDS011;6472;52.328;13.070;2024-02-26T10:15:13;13.87;;;9.90;;
12814;SDS011;6472;52.328;13.070;2024-02-26T10:17:43;12.13;;;9.53;;
12814;SDS011;6472;52.328;13.070;2024-02-26T10:20:12;13.17;;;9.37;;
12814;SDS011;6472;52.328;13.070;2024-02-26T10:22:42;15.07;;;10.20;;
12814;SDS011;6472;52.328;13.070;2024-02-26T10:25:11;14.20;;;10.70;;
12814;SDS011;6472;52.328;13.070;2024-02-26T10:27:40;12.97;;;10.07;;
12814;SDS011;6472;52.328;13.070;2024-02-26T10:30:18;14.57;;;9.30;;
12814;SDS011;6472;52.328;13.070;2024-02-26T10:32:50;13.23;;;9.43;;
12814;SDS011;6472;52.328;13.070;2024-02-26T10:35:19;11.83;;;8.43;;
12814;SDS011;6472;52.328;13.070;2024-02-26T10:37:48;10.87;;;8.33;;
12814;SDS011;6472;52.328;13.070;2024-02-26T10:40:17;17.77;;;8.70;;
12814;SDS011;6472;52.328;13.070;2024-02-26T10:42:45;11.73;;;7.97;;
12814;SDS011;6472;52.328;13.070;2024-02-26T10:45:13;11.13;;;8.60;;
12814;SDS011;6472;52.328;13.070;2024-02-26T10:47:41;12.13;;;9.03;;
12814;SDS011;6472;52.328;13.070;2024-02-26T10:50:12;11.03;;;7.70;;
12814;SDS011;6472;52.328;13.070;2024-02-26T10:52:43;12.10;;;8.33;;
12814;SDS011;6472;52.328;13.070;2024-02-26T10:55:13;17.30;;;11.60;;
12814;SDS011;6472;52.328;13.070;2024-02-26T10:57:45;10.60;;;7.17;;
12814;SDS011;6472;52.328;13.070;2024-02-26T11:00:15;12.30;;;9.27;;
12814;SDS011;6472;52.328;13.070;2024-02-26T11:02:44;11.07;;;7.87;;
12814;SDS011;6472;52.328;13.070;2024-02-26T11:05:14;11.47;;;7.63;;
12814;SDS011;6472;52.328;13.070;2024-02-26T11:07:43;9.77;;;7.70;;
12814;SDS011;6472;52.328;13.070;2024-02-26T11:10:13;15.83;;;7.50;;
12814;SDS011;6472;52.328;13.070;2024-02-26T11:12:44;12.10;;;7.70;;
12814;SDS011;6472;52.328;13.070;2024-02-26T11:15:13;13.77;;;8.40;;
12814;SDS011;6472;52.328;13.070;2024-02-26T11:17:42;12.40;;;6.97;;
12814;SDS011;6472;52.328;13.070;2024-02-26T11:20:15;10.03;;;6.60;;
12814;SDS011;6472;52.328;13.070;2024-02-26T11:22:45;8.33;;;6.33;;
12814;SDS011;6472;52.328;13.070;2024-02-26T11:25:13;8.47;;;6.07;;
12814;SDS011;6472;52.328;13.070;2024-02-26T11:27:44;7.23;;;6.03;;
12814;SDS011;6472;52.328;13.070;2024-02-26T11:30:15;9.03;;;6.53;;
12814;SDS011;6472;52.328;13.070;2024-02-26T11:32:46;10.63;;;6.70;;
12814;SDS011;6472;52.328;13.070;2024-02-26T11:35:16;10.30;;;6.20;;
12814;SDS011;6472;52.328;13.070;2024-02-26T11:37:51;7.77;;;5.77;;
12814;SDS011;6472;52.328;13.070;2024-02-26T11:40:22;9.00;;;6.23;;
12814;SDS011;6472;52.328;13.070;2024-02-26T11:42:51;8.30;;;6.00;;
12814;SDS011;6472;52.328;13.070;2024-02-26T11:48:22;6.13;;;5.00;;
12814;SDS011;6472;52.328;13.070;2024-02-26T11:50:54;6.87;;;5.20;;
12814;SDS011;6472;52.328;13.070;2024-02-26T11:53:23;8.23;;;6.13;;
12814;SDS011;6472;52.328;13.070;2024-02-26T11:58:40;10.27;;;5.70;;
12814;SDS011;6472;52.328;13.070;2024-02-26T12:04:11;6.17;;;4.60;;
12814;SDS011;6472;52.328;13.070;2024-02-26T12:06:43;5.60;;;4.50;;
12814;SDS011;6472;52.328;13.070;2024-02-26T12:09:18;9.33;;;5.40;;
12814;SDS011;6472;52.328;13.070;2024-02-26T12:11:58;9.37;;;6.27;;
12814;SDS011;6472;52.328;13.070;2024-02-26T12:14:28;5.33;;;4.63;;
12814;SDS011;6472;52.328;13.070;2024-02-26T12:16:56;5.80;;;4.77;;
12814;SDS011;6472;52.328;13.070;2024-02-26T12:19:25;8.10;;;4.77;;
12814;SDS011;6472;52.328;13.070;2024-02-26T12:21:56;4.97;;;4.47;;
12814;SDS011;6472;52.328;13.070;2024-02-26T12:24:24;5.93;;;4.30;;
12814;SDS011;6472;52.328;13.070;2024-02-26T12:26:52;6.97;;;4.73;;
12814;SDS011;6472;52.328;13.070;2024-02-26T12:29:21;5.83;;;4.60;;
12814;SDS011;6472;52.328;13.070;2024-02-26T12:31:50;5.37;;;4.60;;
12814;SDS011;6472;52.328;13.070;2024-02-26T12:34:18;5.80;;;4.13;;
12814;SDS011;6472;52.328;13.070;2024-02-26T12:36:46;6.73;;;4.87;;
12814;SDS011;6472;52.328;13.070;2024-02-26T12:39:16;6.97;;;4.27;;
12814;SDS011;6472;52.328;13.070;2024-02-26T12:41:46;5.63;;;4.20;;
12814;SDS011;6472;52.328;13.070;2024-02-26T12:44:16;5.57;;;4.30;;
12814;SDS011;6472;52.328;13.070;2024-02-26T12:46:44;5.63;;;3.97;;
12814;SDS011;6472;52.328;13.070;2024-02-26T12:49:14;5.43;;;4.07;;
12814;SDS011;6472;52.328;13.070;2024-02-26T12:51:44;5.90;;;4.00;;
12814;SDS011;6472;52.328;13.070;2024-02-26T12:54:12;5.63;;;4.57;;
12814;SDS011;6472;52.328;13.070;2024-02-26T12:56:42;6.07;;;3.93;;
12814;SDS011;6472;52.328;13.070;2024-02-26T12:59:11;6.43;;;4.30;;
12814;SDS011;6472;52.328;13.070;2024-02-26T13:01:40;4.80;;;4.07;;
12814;SDS011;6472;52.328;13.070;2024-02-26T13:04:08;7.43;;;4.30;;
12814;SDS011;6472;52.328;13.070;2024-02-26T13:06:37;8.73;;;3.97;;
12814;SDS011;6472;52.328;13.070;2024-02-26T13:09:06;5.80;;;3.60;;
12814;SDS011;6472;52.328;13.070;2024-02-26T13:11:35;4.83;;;3.67;;
12814;SDS011;6472;52.328;13.070;2024-02-26T13:14:08;5.27;;;4.10;;
12814;SDS011;6472;52.328;13.070;2024-02-26T13:16:54;7.37;;;4.77;;
12814;SDS011;6472;52.328;13.070;2024-02-26T13:19:22;9.43;;;5.20;;
12814;SDS011;6472;52.328;13.070;2024-02-26T13:21:51;6.03;;;4.33;;
12814;SDS011;6472;52.328;13.070;2024-02-26T13:24:19;4.97;;;4.23;;
12814;SDS011;6472;52.328;13.070;2024-02-26T13:26:53;6.57;;;4.20;;
12814;SDS011;6472;52.328;13.070;2024-02-26T13:29:23;6.63;;;4.53;;
12814;SDS011;6472;52.328;13.070;2024-02-26T13:31:55;4.00;;;3.60;;
12814;SDS011;6472;52.328;13.070;2024-02-26T13:34:25;5.27;;;3.63;;
12814;SDS011;6472;52.328;13.070;2024-02-26T13:36:54;5.10;;;3.70;;
12814;SDS011;6472;52.328;13.070;2024-02-26T13:39:23;5.23;;;3.80;;
12814;SDS011;6472;52.328;13.070;2024-02-26T13:41:52;5.43;;;3.73;;
12814;SDS011;6472;52.328;13.070;2024-02-26T13:44:20;3.73;;;3.40;;
12814;SDS011;6472;52.328;13.070;2024-02-26T13:46:50;5.10;;;4.03;;
12814;SDS011;6472;52.328;13.070;2024-02-26T13:49:18;4.60;;;3.73;;
12814;SDS011;6472;52.328;13.070;2024-02-26T13:51:47;4.43;;;3.47;;
12814;SDS011;6472;52.328;13.070;2024-02-26T13:54:15;5.53;;;3.83;;
12814;SDS011;6472;52.328;13.070;2024-02-26T13:56:43;6.53;;;4.43;;
12814;SDS011;6472;52.328;13.070;2024-02-26T13:59:14;4.83;;;4.03;;
12814;SDS011;6472;52.328;13.070;2024-02-26T14:01:42;4.63;;;3.70;;
12814;SDS011;6472;52.328;13.070;2024-02-26T14:04:12;7.53;;;4.70;;
12814;SDS011;6472;52.328;13.070;2024-02-26T14:06:40;8.47;;;4.53;;
12814;SDS011;6472;52.328;13.070;2024-02-26T14:09:09;6.13;;;5.10;;
12814;SDS011;6472;52.328;13.070;2024-02-26T14:11:38;9.57;;;5.43;;
12814;SDS011;6472;52.328;13.070;2024-02-26T14:14:07;7.40;;;5.77;;
12814;SDS011;6472;52.328;13.070;2024-02-26T14:16:35;9.20;;;5.87;;
12814;SDS011;6472;52.328;13.070;2024-02-26T14:19:03;8.53;;;6.20;;
12814;SDS011;6472;52.328;13.070;2024-02-26T14:21:32;8.37;;;5.70;;
12814;SDS011;6472;52.328;13.070;2024-02-26T14:24:01;7.33;;;5.50;;
12814;SDS011;6472;52.328;13.070;2024-02-26T14:26:30;9.73;;;5.57;;
12814;SDS011;6472;52.328;13.070;2024-02-26T14:28:58;7.70;;;5.50;;
12814;SDS011;6472;52.328;13.070;2024-02-26T14:31:26;6.77;;;4.97;;
12814;SDS011;6472;52.328;13.070;2024-02-26T14:33:54;4.40;;;4.00;;
12814;SDS011;6472;52.328;13.070;2024-02-26T14:36:23;6.13;;;3.70;;
12814;SDS011;6472;52.328;13.070;2024-02-26T14:38:53;3.50;;;3.17;;
12814;SDS011;6472;52.328;13.070;2024-02-26T14:41:21;4.87;;;3.00;;
12814;SDS011;6472;52.328;13.070;2024-02-26T14:43:49;3.47;;;2.40;;
12814;SDS011;6472;52.328;13.070;2024-02-26T14:46:18;6.40;;;2.77;;
12814;SDS011;6472;52.328;13.070;2024-02-26T14:48:46;3.90;;;2.67;;
12814;SDS011;6472;52.328;13.070;2024-02-26T14:51:14;4.03;;;2.57;;
12814;SDS011;6472;52.328;13.070;2024-02-26T14:53:42;3.13;;;2.73;;
12814;SDS011;6472;52.328;13.070;2024-02-26T14:56:12;5.23;;;2.83;;
12814;SDS011;6472;52.328;13.070;2024-02-26T14:58:40;4.57;;;2.93;;
12814;SDS011;6472;52.328;13.070;2024-02-26T15:01:08;4.83;;;2.60;;